x

New London Ledge Ct - Ledge Light Weather Station (ldlc3) Weather Station

10:55 - Fri 4th Sep 2015 All times are EDT. -4 hours from GMT.

  • Wind
    14mph, 18mph gusts
  • Luft Temp 74°f
  • Sea Pressure 1018.7mb
  • New London Ledge Ct - Ledge Light Weather Station
  • New London Ledge Ct - Ledge Light Weather Station

More Historic Weather Station data

Upgrade to MSW Pro to gain access to the past 30 days of data for over 8000 Wavebouys and Weather Stations around the globe.

Join Pro

Comparision Forecast

View Surf forecast
   
Fr 09/04 10:55 14 18 mph 1018.7mb 74f
10:40 13 17 mph 1018.5mb 74f
10:25 11 16 mph 1018.5mb 73f
10:10 16 22 mph 1018.2mb 73f
9:55 15 23 mph 1018mb 73f
9:40 13 20 mph 1018mb 73f
9:25 13 17 mph 1017.9mb 73f
9:10 17 23 mph 1017.6mb 73f
8:55 17 23 mph 1017.1mb 73f
8:40 15 23 mph 1017mb 74f
8:25 14 20 mph 1016.9mb 74f
8:10 15 21 mph 1016.7mb 73f
7:55 11 16 mph 1016.7mb 73f
7:40 11 15 mph 1016.5mb 73f
7:25 10 13 mph 1016.2mb 73f
7:10 9 13 mph 1015.8mb 73f
6:55 8 9 mph 1015.5mb 73f
6:40 9 11 mph 1015.3mb 73f
6:25 9 10 mph 1015mb 73f
6:10 9 11 mph 1014.8mb 73f
5:55 7 8 mph 1014.6mb 72f
5:40 6 7 mph 1014.3mb 72f
5:25 6 8 mph 1014mb 72f
5:10 7 8 mph 1013.8mb 72f
4:55 5 6 mph 1013.6mb 72f
4:40 5 7 mph 1013.6mb 72f
4:25 5 6 mph 1013.4mb 72f
4:10 5 6 mph 1013.2mb 72f
3:55 3
mph
1013.1mb 72f
3:40 3
mph
1013mb 72f
3:25 3
mph
1012.9mb 72f
3:10 3 5 mph 1012.9mb 73f
2:55 5
mph
1012.9mb 72f
2:40 5
mph
1012.9mb 72f
2:25 6 7 mph 1012.9mb 72f
2:10 9 10 mph 1012.7mb 73f
1:55 13 14 mph 1012.5mb 73f
1:40 8 9 mph 1012.4mb 74f
1:25 5 7 mph 1012.4mb 74f
1:10 6 7 mph 1012.5mb 74f
Do 09/03 7:55 8
mph
1010.4mb 74f
7:40 8
mph
1010.1mb 74f
7:25 7 8 mph 1010.1mb 74f
7:10 9 10 mph 1010mb 75f
6:55 8
mph
1010.2mb 75f
6:40 8
mph
1010.3mb 75f
6:25 7
mph
1010.2mb 76f
6:10 6 7 mph 1010.1mb 77f
5:55 5
mph
1010mb 78f
5:40 6
mph
1009.8mb 77f
5:25 3 5 mph 1009.7mb 76f
5:10 5 6 mph 1009.5mb 76f
4:55 9
mph
1009.5mb 78f
4:40 9 10 mph 1009.6mb 78f
4:25 10
mph
1009.6mb 78f
4:10 10
mph
1009.6mb 78f
3:55 9 10 mph 1009.5mb 76f
3:40 9
mph
1009.5mb 76f
3:25 8 9 mph 1009.5mb 77f
3:10 6 7 mph 1009.7mb 77f
2:55 8 9 mph 1009.7mb 77f
2:40 7
mph
1009.7mb 77f
2:25 7 8 mph 1009.8mb 77f
2:10 7 8 mph 1009.8mb 77f
1:55 7 8 mph 1010mb 78f
1:40 6 7 mph 1010mb 77f
1:25 7 8 mph 1010.1mb 76f
1:10 8 9 mph 1010.3mb 75f
12:55 10 11 mph 1010.5mb 76f
12:40 9
mph
1010.5mb 76f
12:25 8 9 mph 1010.7mb 76f
12:10 8 9 mph 1010.8mb 76f
11:55 8 9 mph 1010.8mb 76f
11:40 9 10 mph 1010.8mb 76f
11:25 8
mph
1010.8mb 76f
11:10 7 8 mph 1010.9mb 76f
10:55 8 9 mph 1011mb 75f
10:40 8
mph
1010.9mb 74f
10:25 7 8 mph 1011mb 75f
10:10 6 7 mph 1011mb 74f
9:55 5 6 mph 1011mb 76f
9:40 3 5 mph 1011mb 77f
9:25 2 3 mph 1011mb 75f
9:10  -  1 mph 1011.1mb 78f
8:55 2
mph
1011.2mb 76f
8:40 3
mph
1011.2mb 76f
8:25 5
mph
1011mb 74f
8:10 5 6 mph 1011mb 74f
7:55 5
mph
1010.9mb 74f
7:40 5 6 mph 1010.9mb 73f
7:25 6 7 mph 1010.8mb 72f
7:10 8 9 mph 1010.8mb 71f
6:55 7
mph
1010.7mb 71f
6:40 3
mph
1010.4mb 71f
6:25 2 3 mph 1010.4mb 70f
6:10 2
mph
1010.4mb 70f
5:55 1 2 mph 1010.3mb 70f
5:40 2
mph
1010.2mb 70f
5:25 2
mph
1010.3mb 70f
5:10 3
mph
1010.4mb 70f
4:55 2
mph
1010.4mb 71f
4:40 2
mph
1010.5mb 71f
4:25 2 3 mph 1010.5mb 71f
4:10 1 2 mph 1010.4mb 71f
3:55 1 2 mph 1010.5mb 71f
3:40 2 3 mph 1010.6mb 71f
3:25 2
mph
1010.7mb 72f
3:10 5 6 mph 1010.8mb 72f
2:55 5 6 mph 1010.8mb 72f
2:40 5 6 mph 1010.8mb 72f
2:25 6 7 mph 1010.9mb 72f
2:10 6 7 mph 1011.1mb 72f
1:55 6 7 mph 1011.1mb 72f
1:40 5 6 mph 1011.1mb 72f
1:25 3 5 mph 1011.3mb 72f
1:10 3 6 mph 1011.4mb 72f
Mi 09/02 7:55 13 14 mph 1012.2mb 75f
7:40 11 13 mph 1012.2mb 75f
7:25 8 10 mph 1012.1mb 75f
7:10 2 7 mph 1012mb 75f
6:55 7 8 mph 1012mb 75f
6:40 10 11 mph 1012.1mb 75f
6:25 9 10 mph 1012.1mb 75f
6:10 9 10 mph 1012.1mb 76f
5:55 10 11 mph 1012.1mb 76f
5:40 14 15 mph 1012.1mb 76f
5:25 15 16 mph 1012.1mb 76f
5:10 16 17 mph 1012.1mb 76f
4:55 11 14 mph 1012.3mb 76f
4:40 11 13 mph 1012.4mb 76f
4:25 14 15 mph 1012.5mb 76f
4:10 9 10 mph 1012.7mb 77f
3:55 9 10 mph 1012.9mb 76f
3:40 10 11 mph 1013.2mb 77f
3:25 9 10 mph 1013.4mb 77f
3:10 10 11 mph 1013.5mb 78f
2:55 10 11 mph 1013.7mb 77f
2:40 10 11 mph 1013.7mb 77f
2:25 11 13 mph 1013.8mb 77f
2:10 14
mph
1013.7mb 76f
1:55 7 8 mph 1014.3mb 78f
1:40 5
mph
1014.3mb 78f
1:25 5 6 mph 1014.5mb 78f
1:10 6 7 mph 1014.6mb 77f
12:55 7
mph
1014.8mb 77f
12:40 7 8 mph 1015mb 76f
12:25 8 9 mph 1015.2mb 75f
12:10 7 8 mph 1015.3mb 76f
11:55 7 8 mph 1015.5mb 76f
11:40 10 11 mph 1015.6mb 75f
11:25 11 13 mph 1015.6mb 74f
11:10 11 13 mph 1015.9mb 74f
10:55 11 13 mph 1016mb 74f
10:40 9 10 mph 1016.1mb 74f
10:25 9
mph
1016.2mb 74f
10:10 8 9 mph 1016.2mb 74f
9:55 3 5 mph 1016.4mb 75f
9:40 5 6 mph 1016.4mb 74f
9:25 6 7 mph 1016.4mb 73f
9:10 7 9 mph 1016.4mb 72f
8:55 8 10 mph 1016.4mb 72f
8:40 9 10 mph 1016.4mb 73f
8:25 8 9 mph 1016.4mb 73f
8:10 8 10 mph 1016.4mb 73f
7:55 8 9 mph 1016.5mb 73f
7:40 6 7 mph 1016.6mb 72f
7:25 6 7 mph 1016.6mb 72f
7:10 3 6 mph 1016.6mb 71f
6:55 3 5 mph 1016.5mb 71f
6:40 3 6 mph 1016.4mb 71f
6:25 5 7 mph 1016.2mb 71f
6:10 6 7 mph 1016.3mb 71f
5:55 5 6 mph 1016.2mb 71f
5:40 2 3 mph 1016.2mb 70f
5:25 2
mph
1016.1mb 70f
5:10 2 3 mph 1016.1mb 70f
4:55 3 5 mph 1016.3mb 70f
4:40 5
mph
1016.2mb 70f
4:25 3 5 mph 1016.3mb 70f
4:10 3 5 mph 1016.4mb 70f
3:55 3 5 mph 1016.4mb 71f
3:40 6
mph
1016.5mb 71f
3:25 6
mph
1016.8mb 71f
3:10 5
mph
1016.8mb 71f
2:55 5
mph
1016.9mb 71f
2:40 3 5 mph 1016.9mb 71f
2:25 5
mph
1016.9mb 71f
2:10 5
mph
1017.1mb 71f
1:55 5 6 mph 1017.3mb 71f
1:40 6 7 mph 1017.3mb 71f
1:25 5
mph
1017.3mb 71f
1:10 3 5 mph 1017.3mb 70f
Di 09/01 7:55 6 7 mph 1016.6mb 73f
7:40 5
mph
1016.7mb 72f
7:25 3
mph
1016.5mb 72f
7:10 3 5 mph 1016.4mb 73f
6:55 2 3 mph 1016.4mb 73f
6:40 2 3 mph 1016.4mb 74f
6:25 2 3 mph 1016.4mb 75f
6:10 3 5 mph 1016.5mb 74f
5:55 6 7 mph 1016.4mb 73f
5:40 7 8 mph 1016.4mb 73f
5:25 9
mph
1016.4mb 73f
5:10 9 10 mph 1016.4mb 73f
4:55 9 10 mph 1016.4mb 73f
4:40 10
mph
1016.5mb 74f
4:25 11 13 mph 1016.6mb 74f
4:10 13 14 mph 1016.5mb 74f
3:55 13 14 mph 1016.5mb 74f
3:40 13 14 mph 1016.6mb 74f
3:25 11 13 mph 1016.6mb 74f
3:10 13 14 mph 1016.5mb 74f
2:55 10 11 mph 1016.7mb 74f
2:40 10 11 mph 1016.7mb 74f
2:25 10 11 mph 1016.9mb 74f
2:10 9 10 mph 1016.9mb 74f
1:55 9 10 mph 1016.9mb 74f
1:40 8 9 mph 1017mb 74f
1:25 10
mph
1017mb 73f
1:10 13 15 mph 1016.9mb 73f
12:55 15 16 mph 1016.9mb 73f
12:40 16
mph
1016.7mb 74f
12:25 9 14 mph 1016.8mb 77f
12:10 6 7 mph 1016.9mb 79f
11:55 6 7 mph 1016.9mb 77f
11:40 6 7 mph 1017.1mb 78f
11:25 2 5 mph 1017.1mb 82f
11:10 5 8 mph 1017.1mb 81f
10:55 6 9 mph 1017.1mb 80f
10:40 7 10 mph 1017.1mb 80f
10:25 11 15 mph 1017mb 79f
10:10 11 15 mph 1016.9mb 78f
9:55 10 16 mph 1016.8mb 77f
9:40 10 15 mph 1016.8mb 78f
9:25 8 10 mph 1016.7mb 76f
9:10 10 11 mph 1016.5mb 76f
8:55 10 11 mph 1016.6mb 76f
8:40 9 11 mph 1016.6mb 74f
8:25 9 10 mph 1016.6mb 73f
8:10 11 13 mph 1016.5mb 73f
7:55 13 14 mph 1016.4mb 73f
7:40 11 13 mph 1016.3mb 73f
7:25 11 13 mph 1016.3mb 72f
7:10 13 14 mph 1016.1mb 72f
6:55 9 10 mph 1015.8mb 71f
6:40 13 15 mph 1015.7mb 71f
6:25 14 15 mph 1015.6mb 71f
6:10 11 13 mph 1015.5mb 72f
5:55 10 11 mph 1015.3mb 72f
5:40 11
mph
1015.1mb 72f
5:25 10 13 mph 1015mb 73f
5:10 10 11 mph 1014.7mb 73f
4:55 11 13 mph 1014.4mb 73f
4:40 14 15 mph 1014.3mb 73f
4:25 15
mph
1014.3mb 74f
4:10 14 15 mph 1014.4mb 74f
3:55 15 16 mph 1014.3mb 74f
3:40 16 17 mph 1014.3mb 75f
3:25 15 16 mph 1014.3mb 75f
3:10 15 16 mph 1014.4mb 76f
2:55 13 16 mph 1014.4mb 76f
2:40 14 16 mph 1014.4mb 76f
2:25 11
mph
1014.4mb 76f
2:10 11 13 mph 1014.4mb 77f
1:55 10 13 mph 1014.4mb 76f
1:40 8 9 mph 1014.5mb 76f
1:25 8 10 mph 1014.6mb 76f
1:10 8 9 mph 1014.7mb 76f
Mo 08/31 7:55 15 16 mph 1013.1mb 78f
7:40 14 17 mph 1013.1mb 78f
7:10 13 14 mph 1012.7mb 82f
6:55 13 17 mph 1012.7mb 82f
6:40 13 15 mph 1012.8mb 83f
6:25 14 18 mph 1012.7mb 82f
6:10 17 18 mph 1012.7mb 81f
5:55 18 21 mph 1012.6mb 81f
5:40 20 22 mph 1012.5mb 80f
5:25 18 21 mph 1012.5mb 79f
5:10 18 20 mph 1012.4mb 78f
4:55 17 18 mph 1012.4mb 77f
4:40 20 21 mph 1012.3mb 77f
4:25 20 22 mph 1012.3mb 78f
4:10 20 22 mph 1012.4mb 78f
3:55 20 21 mph 1012.5mb 77f
3:40 20 21 mph 1012.6mb 77f